Airfield :
LOGIN :

Register | Disclaimer

   EN    FR    IT 

 










Legend :    VFR   Marginal VFR   IFR   Intensive IFR   Very Intensive IFR
Visi :
Ceiling :
>= 8 km
>= 3000ft
5 to 8 km
1000 to 3000 ft
1500m to 5 km
500 to 1000 ft
800 to 1500m
200 to 500 ft
< 800m
< 200 ft
Symbols :   Thunderstorms  Fog  Heavy snow  Heavy precipitations  Wind > 20 kt
SIGMETs :     Misc.  Thunderstorms  Icing  Turbulence  Mountain Waves  Volcanic Ashes






- Airport Elevation : 93 ft
- IATA code : HDF


EDAH - Heringsdorf

CURRENT METAR :
  • 200020Z AUTO 03016KT 9999 // BKN010/// OVC016/// 04/03 Q1005

EXPIRED METARs :
  • 192350Z AUTO 03014G24KT 360V080 9999 // OVC010/// 04/03 Q1004
  • 192320Z AUTO 03013G24KT 8000 // BKN009/// OVC018/// 05/04 Q1004
  • 192250Z AUTO 03013KT 9999 // OVC010/// 05/04 Q1004
  • 192220Z AUTO 04012G22KT 010V080 8000 // OVC010/// 05/04 Q1003
  • 192150Z AUTO 04009KT 9999 // OVC009/// 05/05 Q1003
  • 192120Z AUTO 03010KT 9999 // BKN008/// BKN017/// OVC027/// 06/05 Q1002
  • 192050Z AUTO 05007KT 020V080 9999 // BKN012/// BKN026/// OVC077/// 06/05 Q1002
  • 192020Z AUTO 03007KT 360V060 9999 // SCT008/// OVC015/// 06/05 Q1001
  • 191950Z AUTO 04006KT 010V070 9999 // FEW015/// OVC030/// 06/04 Q1001

TAF TAF EDAH
Valid from the 19 at 18:00 until the 20 at 03:00 UTC


191700Z 1918/2003 13006KT 9999 SCT003 BKN011
TEMPO 1918/2001 04020G30KT 4000 -RA
BECMG 1919/1921 06012KT
PROB40
TEMPO 1919/1921 RA
BECMG 1922/1924 04015G25KT



MET'MAP, your aeronautical weather chart ! - Copyright ORBIFLY December 2007 - Disclaimer

ORBIFLY MET'MAP TEAM :

Programming & Development : Alexandra Zaïnal
Original concept : Baudouin d'Aumeries
Technical & hardware support : Manuel Goepfert
Assistance : Marc-Olivier Méhu




SOURCES & CREDITS :

   NOAA